Ital Libera — ICDK — position and weather

sailwx.info

Track history (hours):
 
Tides and Currents Weather Stations Pressure Air Temp Water Temp Dewpoint Dewpoint Depression Visibility Wind Speed Wind Dir Waves Ship Positions

Ital Libera

Last reported at 2018-Jun-12 21:50 UTC. Time now 2018-Jun-21 08:40 UTC.
Position N 29°59' E 123°08'.
Warning: this ship's position is 8 days out of date.

Length 294 m; draft 11.4 m.

Type: Ship. MMSI: 247188100.

Date/timePositionNaut miles runAvg speedWind from/ knotsBaromVisibWave heightAir tempDewpointWater temp
2018-Jun-12 21:50N 29°59' E 123°08'1018.3
2018-Jun-12 21:17N 30°04' E 123°18'817.6
2018-Jun-12 20:51N 30°11' E 123°20'618.2
2018-Jun-12 20:30N 30°17' E 123°20'918.2
2018-Jun-12 20:00N 30°27' E 123°20'2418.1
2018-Jun-12 18:41N 30°50' E 123°15'619.0
2018-Jun-12 18:24N 30°55' E 123°11'1018.8
2018-Jun-12 17:53N 31°01' E 123°03'718.6
2018-Jun-12 17:30N 31°04' E 122°55'918.9
2018-Jun-12 17:00N 31°05' E 122°44'1018.2
2018-Jun-12 16:26N 31°05' E 122°33'511.9
2018-Jun-12 15:59N 31°06' E 122°26'714.2
2018-Jun-12 15:30N 31°06' E 122°18'713.9
2018-Jun-12 15:00N 31°10' E 122°12'714.3
2018-Jun-12 14:30N 31°14' E 122°05'714.5
2018-Jun-12 14:00N 31°15' E 121°56'714.4
2018-Jun-12 13:30N 31°17' E 121°48'12 0.8
2018-Jun-11 21:43N 31°22' E 121°35'0 0.0
2018-Jun-11 21:19N 31°22' E 121°35'0 0.0
2018-Jun-11 15:04N 31°22' E 121°35'0 0.5
2018-Jun-11 14:58N 31°22' E 121°35'1 1.5
2018-Jun-11 14:27N 31°23' E 121°36'16 9.6
2018-Jun-11 12:48N 31°16' E 121°53'3 9.4
2018-Jun-11 12:29N 31°15' E 121°56'611.5
2018-Jun-11 12:00N 31°14' E 122°03'810.9
2018-Jun-11 11:15N 31°11' E 122°11'210.1
2018-Jun-11 11:00N 31°09' E 122°13'612.6
2018-Jun-11 10:30N 31°06' E 122°20'611.3
2018-Jun-11 10:00N 31°07' E 122°27'5 6.6
2018-Jun-11 09:18N 31°10' E 122°31'3 8.3
2018-Jun-11 08:54N 31°13' E 122°32'310 7.9
2018-Jun-09 17:43N 36°02' E 120°17'2 6.8
2018-Jun-09 17:28N 36°02' E 120°15'2 3.8
2018-Jun-09 16:58N 36°00' E 120°13'0 0.1
2018-Jun-09 12:14N 36°00' E 120°12'0 0.0
2018-Jun-09 11:51N 36°00' E 120°12'0 0.0
2018-Jun-09 11:17N 36°00' E 120°12'0 0.0
2018-Jun-09 10:59N 36°00' E 120°12'0 0.0
2018-Jun-09 10:26N 36°00' E 120°12'0 0.0
2018-Jun-09 09:35N 36°00' E 120°12'0 0.0
2018-Jun-09 09:17N 36°00' E 120°12'0 0.0
2018-Jun-09 08:59N 36°00' E 120°12'0 0.0
2018-Jun-09 08:30N 36°00' E 120°12'0 0.0
2018-Jun-09 07:50N 36°00' E 120°12'0 0.0
2018-Jun-09 07:31N 36°00' E 120°12'0 0.0
2018-Jun-09 06:56N 36°00' E 120°12'0 0.0
2018-Jun-09 06:05N 36°00' E 120°12'0 0.0
2018-Jun-09 05:48N 36°00' E 120°12'0 0.0
2018-Jun-09 05:20N 36°00' E 120°12'0 0.0
2018-Jun-09 04:59N 36°00' E 120°12'0 0.0
2018-Jun-09 04:17N 36°00' E 120°12'0 0.0
2018-Jun-09 03:53N 36°00' E 120°12'0 0.0
2018-Jun-09 03:20N 36°00' E 120°12'0 0.0
2018-Jun-09 03:00N 36°00' E 120°12'0 0.0
2018-Jun-09 01:38N 36°00' E 120°12'0 0.0
2018-Jun-09 01:20N 36°00' E 120°12'0 0.0
2018-Jun-09 00:47N 36°01' E 120°12'0 0.0
2018-Jun-09 00:14N 36°00' E 120°12'0 0.0
2018-Jun-08 23:59N 36°00' E 120°12'0 0.0
2018-Jun-08 23:08N 36°00' E 120°12'0 0.0
2018-Jun-08 22:53N 36°00' E 120°12'0 0.0
2018-Jun-08 22:20N 36°00' E 120°12'  
2018-Jun-06 09:46N 34°58' E 128°49'31012.7
2018-Jun-05 09:27N 33°48' E 134°55'920.2
2018-Jun-05 09:00N 33°56' E 134°56'918.3
2018-Jun-05 08:30N 34°06' E 134°56'714.2
2018-Jun-05 08:00N 34°13' E 134°57'714.8
2018-Jun-05 07:30N 34°20' E 134°59'917.7
2018-Jun-05 07:00N 34°26' E 135°06'918.2
2018-Jun-05 06:30N 34°33' E 135°15'816.2
2018-Jun-05 06:00N 34°38' E 135°22'2 3.9
2018-Jun-05 05:30N 34°39' E 135°24'0 0.1
2018-Jun-05 04:58N 34°39' E 135°24'0 0.0
2018-Jun-05 04:22N 34°39' E 135°24'0 0.0
2018-Jun-05 03:55N 34°39' E 135°24'0 0.0
2018-Jun-05 03:28N 34°39' E 135°24'0 0.0
2018-Jun-05 02:58N 34°39' E 135°24'0 0.0
2018-Jun-05 02:28N 34°39' E 135°24'0 0.0
2018-Jun-05 01:58N 34°39' E 135°24'0 0.0
2018-Jun-05 01:28N 34°39' E 135°24'0 0.0
2018-Jun-05 00:58N 34°39' E 135°24'0 0.0
2018-Jun-05 00:28N 34°39' E 135°24'0 0.0
2018-Jun-04 23:52N 34°39' E 135°24'0 0.0
2018-Jun-04 23:28N 34°39' E 135°24'0 0.0
2018-Jun-04 22:58N 34°39' E 135°24'0 0.1
2018-Jun-04 22:30N 34°39' E 135°24'1 2.8
2018-Jun-04 22:00N 34°38' E 135°23'510.9
2018-Jun-04 21:30N 34°34' E 135°18'713.2
2018-Jun-04 21:01N 34°29' E 135°13'816.3
2018-Jun-04 20:30N 34°24' E 135°06'816.6
2018-Jun-04 20:01N 34°17' E 134°59'714.2
2018-Jun-04 19:30N 34°10' E 134°60'3 6.7
2018-Jun-04 19:00N 34°07' E 134°59'3 6.6
2018-Jun-04 18:30N 34°04' E 134°59'714.3
2018-Jun-04 18:00N 33°56' E 134°58'815.9
2018-Jun-04 17:30N 33°48' E 134°57'816.2
2018-Jun-04 17:00N 33°40' E 134°58'816.5
2018-Jun-04 16:30N 33°33' E 135°02'815.8
2018-Jun-04 16:00N 33°27' E 135°09'816.0
2018-Jun-04 15:30N 33°22' E 135°16'245 8.3
2018-Jun-03 09:57N 35°07' E 139°44'613.4
2018-Jun-03 09:28N 35°13' E 139°46'511.1
2018-Jun-03 09:00N 35°18' E 139°44'612.6
2018-Jun-03 08:30N 35°24' E 139°42'3 6.3
2018-Jun-03 08:00N 35°27' E 139°41'0 0.3
2018-Jun-03 07:30N 35°27' E 139°41'0 0.0
2018-Jun-03 07:00N 35°27' E 139°41'0 0.0
2018-Jun-03 06:30N 35°27' E 139°41'0 0.0
2018-Jun-03 06:00N 35°27' E 139°41'0 0.0
2018-Jun-03 05:30N 35°27' E 139°41'0 0.0
2018-Jun-03 05:00N 35°27' E 139°41'0 0.0
2018-Jun-03 04:30N 35°27' E 139°41'0 0.0
2018-Jun-03 04:00N 35°27' E 139°41'0 0.0
2018-Jun-03 03:30N 35°27' E 139°41'0 0.0
2018-Jun-03 03:00N 35°27' E 139°41'0 0.0
2018-Jun-03 02:30N 35°27' E 139°41'0 0.0
2018-Jun-03 02:00N 35°27' E 139°41'0 0.0
2018-Jun-03 01:30N 35°27' E 139°41'0 0.0
2018-Jun-03 01:00N 35°27' E 139°41'0 0.0
2018-Jun-03 00:30N 35°27' E 139°41'0 0.0
2018-Jun-03 00:00N 35°27' E 139°41'0 0.1
2018-Jun-02 23:31N 35°27' E 139°41'0 0.6
2018-Jun-02 23:01N 35°27' E 139°41'3 5.8
2018-Jun-02 22:30N 35°25' E 139°44'4 7.1
2018-Jun-02 22:00N 35°21' E 139°43'  
Track history (hours):
 
Tides and Currents Weather Stations Pressure Air Temp Water Temp Dewpoint Dewpoint Depression Visibility Wind Speed Wind Dir Waves Ship Positions

Ital Libera

Last reported at 2018-Jun-12 21:50 UTC. Time now 2018-Jun-21 08:40 UTC.
Position N 29°59' E 123°08'.
Warning: this ship's position is 8 days out of date.

Length 294 m; draft 11.4 m.

Type: Ship. MMSI: 247188100.

Date/timePositionNaut miles runAvg speedWind from/ knotsBaromVisibWave heightAir tempDewpointWater temp
2018-Jun-12 21:50N 29°59' E 123°08'1018.3
2018-Jun-12 21:17N 30°04' E 123°18'817.6
2018-Jun-12 20:51N 30°11' E 123°20'618.2
2018-Jun-12 20:30N 30°17' E 123°20'918.2
2018-Jun-12 20:00N 30°27' E 123°20'2418.1
2018-Jun-12 18:41N 30°50' E 123°15'619.0
2018-Jun-12 18:24N 30°55' E 123°11'1018.8
2018-Jun-12 17:53N 31°01' E 123°03'718.6
2018-Jun-12 17:30N 31°04' E 122°55'918.9
2018-Jun-12 17:00N 31°05' E 122°44'1018.2
2018-Jun-12 16:26N 31°05' E 122°33'511.9
2018-Jun-12 15:59N 31°06' E 122°26'714.2
2018-Jun-12 15:30N 31°06' E 122°18'713.9
2018-Jun-12 15:00N 31°10' E 122°12'714.3
2018-Jun-12 14:30N 31°14' E 122°05'714.5
2018-Jun-12 14:00N 31°15' E 121°56'714.4
2018-Jun-12 13:30N 31°17' E 121°48'12 0.8
2018-Jun-11 21:43N 31°22' E 121°35'0 0.0
2018-Jun-11 21:19N 31°22' E 121°35'0 0.0
2018-Jun-11 15:04N 31°22' E 121°35'0 0.5
2018-Jun-11 14:58N 31°22' E 121°35'1 1.5
2018-Jun-11 14:27N 31°23' E 121°36'16 9.6
2018-Jun-11 12:48N 31°16' E 121°53'3 9.4
2018-Jun-11 12:29N 31°15' E 121°56'611.5
2018-Jun-11 12:00N 31°14' E 122°03'810.9
2018-Jun-11 11:15N 31°11' E 122°11'210.1
2018-Jun-11 11:00N 31°09' E 122°13'612.6
2018-Jun-11 10:30N 31°06' E 122°20'611.3
2018-Jun-11 10:00N 31°07' E 122°27'5 6.6
2018-Jun-11 09:18N 31°10' E 122°31'3 8.3
2018-Jun-11 08:54N 31°13' E 122°32'310 7.9
2018-Jun-09 17:43N 36°02' E 120°17'2 6.8
2018-Jun-09 17:28N 36°02' E 120°15'2 3.8
2018-Jun-09 16:58N 36°00' E 120°13'0 0.1
2018-Jun-09 12:14N 36°00' E 120°12'0 0.0
2018-Jun-09 11:51N 36°00' E 120°12'0 0.0
2018-Jun-09 11:17N 36°00' E 120°12'0 0.0
2018-Jun-09 10:59N 36°00' E 120°12'0 0.0
2018-Jun-09 10:26N 36°00' E 120°12'0 0.0
2018-Jun-09 09:35N 36°00' E 120°12'0 0.0
2018-Jun-09 09:17N 36°00' E 120°12'0 0.0
2018-Jun-09 08:59N 36°00' E 120°12'0 0.0
2018-Jun-09 08:30N 36°00' E 120°12'0 0.0
2018-Jun-09 07:50N 36°00' E 120°12'0 0.0
2018-Jun-09 07:31N 36°00' E 120°12'0 0.0
2018-Jun-09 06:56N 36°00' E 120°12'0 0.0
2018-Jun-09 06:05N 36°00' E 120°12'0 0.0
2018-Jun-09 05:48N 36°00' E 120°12'0 0.0
2018-Jun-09 05:20N 36°00' E 120°12'0 0.0
2018-Jun-09 04:59N 36°00' E 120°12'0 0.0
2018-Jun-09 04:17N 36°00' E 120°12'0 0.0
2018-Jun-09 03:53N 36°00' E 120°12'0 0.0
2018-Jun-09 03:20N 36°00' E 120°12'0 0.0
2018-Jun-09 03:00N 36°00' E 120°12'0 0.0
2018-Jun-09 01:38N 36°00' E 120°12'0 0.0
2018-Jun-09 01:20N 36°00' E 120°12'0 0.0
2018-Jun-09 00:47N 36°01' E 120°12'0 0.0
2018-Jun-09 00:14N 36°00' E 120°12'0 0.0
2018-Jun-08 23:59N 36°00' E 120°12'0 0.0
2018-Jun-08 23:08N 36°00' E 120°12'0 0.0
2018-Jun-08 22:53N 36°00' E 120°12'0 0.0
2018-Jun-08 22:20N 36°00' E 120°12'  
2018-Jun-06 09:46N 34°58' E 128°49'31012.7
2018-Jun-05 09:27N 33°48' E 134°55'920.2
2018-Jun-05 09:00N 33°56' E 134°56'918.3
2018-Jun-05 08:30N 34°06' E 134°56'714.2
2018-Jun-05 08:00N 34°13' E 134°57'714.8
2018-Jun-05 07:30N 34°20' E 134°59'917.7
2018-Jun-05 07:00N 34°26' E 135°06'918.2
2018-Jun-05 06:30N 34°33' E 135°15'816.2
2018-Jun-05 06:00N 34°38' E 135°22'2 3.9
2018-Jun-05 05:30N 34°39' E 135°24'0 0.1
2018-Jun-05 04:58N 34°39' E 135°24'0 0.0
2018-Jun-05 04:22N 34°39' E 135°24'0 0.0
2018-Jun-05 03:55N 34°39' E 135°24'0 0.0
2018-Jun-05 03:28N 34°39' E 135°24'0 0.0
2018-Jun-05 02:58N 34°39' E 135°24'0 0.0
2018-Jun-05 02:28N 34°39' E 135°24'0 0.0
2018-Jun-05 01:58N 34°39' E 135°24'0 0.0
2018-Jun-05 01:28N 34°39' E 135°24'0 0.0
2018-Jun-05 00:58N 34°39' E 135°24'0 0.0
2018-Jun-05 00:28N 34°39' E 135°24'0 0.0
2018-Jun-04 23:52N 34°39' E 135°24'0 0.0
2018-Jun-04 23:28N 34°39' E 135°24'0 0.0
2018-Jun-04 22:58N 34°39' E 135°24'0 0.1
2018-Jun-04 22:30N 34°39' E 135°24'1 2.8
2018-Jun-04 22:00N 34°38' E 135°23'510.9
2018-Jun-04 21:30N 34°34' E 135°18'713.2
2018-Jun-04 21:01N 34°29' E 135°13'816.3
2018-Jun-04 20:30N 34°24' E 135°06'816.6
2018-Jun-04 20:01N 34°17' E 134°59'714.2
2018-Jun-04 19:30N 34°10' E 134°60'3 6.7
2018-Jun-04 19:00N 34°07' E 134°59'3 6.6
2018-Jun-04 18:30N 34°04' E 134°59'714.3
2018-Jun-04 18:00N 33°56' E 134°58'815.9
2018-Jun-04 17:30N 33°48' E 134°57'816.2
2018-Jun-04 17:00N 33°40' E 134°58'816.5
2018-Jun-04 16:30N 33°33' E 135°02'815.8
2018-Jun-04 16:00N 33°27' E 135°09'816.0
2018-Jun-04 15:30N 33°22' E 135°16'245 8.3
2018-Jun-03 09:57N 35°07' E 139°44'613.4
2018-Jun-03 09:28N 35°13' E 139°46'511.1
2018-Jun-03 09:00N 35°18' E 139°44'612.6
2018-Jun-03 08:30N 35°24' E 139°42'3 6.3
2018-Jun-03 08:00N 35°27' E 139°41'0 0.3
2018-Jun-03 07:30N 35°27' E 139°41'0 0.0
2018-Jun-03 07:00N 35°27' E 139°41'0 0.0
2018-Jun-03 06:30N 35°27' E 139°41'0 0.0
2018-Jun-03 06:00N 35°27' E 139°41'0 0.0
2018-Jun-03 05:30N 35°27' E 139°41'0 0.0
2018-Jun-03 05:00N 35°27' E 139°41'0 0.0
2018-Jun-03 04:30N 35°27' E 139°41'0 0.0
2018-Jun-03 04:00N 35°27' E 139°41'0 0.0
2018-Jun-03 03:30N 35°27' E 139°41'0 0.0
2018-Jun-03 03:00N 35°27' E 139°41'0 0.0
2018-Jun-03 02:30N 35°27' E 139°41'0 0.0
2018-Jun-03 02:00N 35°27' E 139°41'0 0.0
2018-Jun-03 01:30N 35°27' E 139°41'0 0.0
2018-Jun-03 01:00N 35°27' E 139°41'0 0.0
2018-Jun-03 00:30N 35°27' E 139°41'0 0.0
2018-Jun-03 00:00N 35°27' E 139°41'0 0.1
2018-Jun-02 23:31N 35°27' E 139°41'0 0.6
2018-Jun-02 23:01N 35°27' E 139°41'3 5.8
2018-Jun-02 22:30N 35°25' E 139°44'4 7.1
2018-Jun-02 22:00N 35°21' E 139°43'  

Dump ship's entire track history